Skip Navigation Links
NOAA logo - Click to go to the NOAA homepage
NOAA's National Weather Service
Alaska Aviation Weather Unit
  NWS logo - Click to go to the NWS homepage
Left Navbar Graphic     15 AKDT = 23 GMT

   
NOAA is celebrating 200 years of science, service, and stewardship. Visit the NOAA 200th celebration Web site to learn more.
USA.gov is the U.S. Government's official Web portal to all Federal, state and local government Web resources and services.
Facebook
NWS on Facebook

Important Change Regarding the AAWU Web Presence

 

Over the last several months, the AAWU has been working to navigate its webpages to a nationally supported server. Security, as well as other needs, have necessitated the change.  We have been given an extension for the site changeover while we diligently work at addressing feedback received. As of July 14, 2017, aawu.arh.noaa.gov will be discontinued. The new AAWU web address is weather.gov/aawu. It is now live and will run in-parallel with the old site until it is discontinued on July 14, 2017. Please continue to send any feedback or questions regarding the new webpages to nws.ar.aawu.webauthors@noaa.gov.  Thank you for your patience during this time of transition.
AAWU Home :: Display TAF Add Bookmark
TAF PADU 192329Z 2000/2024  13013KT P6SM -SHRA SCT025 BKN035 OVC050
     FM200400 11011KT 6SM -RA BR BKN018 OVC025
     FM201500 04010G18KT 6SM -RA BR OVC015
     FM202000 36018G26KT P6SM -SHRA BKN025=


SPECI PADU 191714Z 21003KT 10SM SCT030 03/M01 A2981 RMK AO2 CS=

SPECI PADU 191818Z 00000KT 10SM SCT030 OVC140 03/M01 A2977 RMK AO2
     CS=

METAR PADU 191856Z 00000KT 10SM CLR 03/M01 A2974 RMK AO2 SLP076 CS
     T00281011=

PADU 191951Z 18004KT 8SM CLR 04/00 A2972 RMK AO2 CS=

METAR PADU 191956Z 17005KT 10SM CLR 04/00 A2972 RMK AO2 SLP069 CS
     T00440000=

PADU 192151Z 13007KT 10SM FEW028 OVC037 06/01 A2964 RMK AO2 CS=

METAR PADU 192156Z 14010KT 10SM FEW028 BKN037 06/00 A2963 RMK AO2
 SLP039 CS T00560000=

METAR PADU 192256Z 12010G16KT 10SM SCT031 BKN040 OVC049 06/M01 A2958
 RMK AO2 SLP022 CS T00611006=


NOAA's National Weather Service
Alaska Aviation Weather Unit
6930 Sand Lake Road
Anchorage, AK 99502-1845
Disclaimer
Credits
Glossary
Privacy Policy
About Us
Career Opportunities
Contact AAWU Internet Services Site last modified: April, 17th 2012